createdAt,value
2023-03-16T00:03:29.216Z,427.00
2023-03-16T00:07:28.854Z,426.00
2023-03-16T00:11:28.980Z,430.00
2023-03-16T00:15:29.204Z,430.00
2023-03-16T00:19:29.819Z,425.00
2023-03-16T00:23:29.818Z,427.00
2023-03-16T00:27:29.640Z,423.00
2023-03-16T00:31:30.237Z,421.00
2023-03-16T00:35:30.158Z,427.00
2023-03-16T00:39:30.607Z,424.00
2023-03-16T00:43:30.356Z,421.00
2023-03-16T00:47:30.540Z,423.00
2023-03-16T00:51:30.911Z,424.00
2023-03-16T00:55:31.237Z,423.00
2023-03-16T00:59:31.145Z,420.00
2023-03-16T01:03:31.712Z,428.00
2023-03-16T01:07:31.755Z,424.00
2023-03-16T01:11:32.076Z,426.00
2023-03-16T01:15:31.961Z,422.00
2023-03-16T01:19:32.201Z,425.00
2023-03-16T01:23:32.433Z,429.00
2023-03-16T01:27:32.549Z,427.00
2023-03-16T01:31:32.782Z,427.00
2023-03-16T01:35:32.778Z,426.00
2023-03-16T01:39:32.952Z,424.00
2023-03-16T01:43:33.001Z,427.00
2023-03-16T01:47:32.989Z,432.00
2023-03-16T01:51:32.684Z,432.00
2023-03-16T01:55:32.518Z,426.00
2023-03-16T01:59:32.872Z,427.00
2023-03-16T02:03:32.827Z,429.00
2023-03-16T02:07:32.628Z,429.00
2023-03-16T02:11:32.570Z,431.00
2023-03-16T02:15:32.576Z,430.00
2023-03-16T02:19:33.202Z,427.00
2023-03-16T02:23:33.038Z,429.00
2023-03-16T02:27:32.418Z,430.00
2023-03-16T02:31:32.574Z,430.00
2023-03-16T02:35:32.440Z,420.00
2023-03-16T02:39:32.328Z,421.00
2023-03-16T02:43:32.406Z,422.00
2023-03-16T02:47:32.587Z,425.00
2023-03-16T02:51:32.731Z,422.00
2023-03-16T02:55:32.799Z,424.00
2023-03-16T02:59:32.922Z,421.00
2023-03-16T03:03:34.065Z,423.00
2023-03-16T03:07:33.449Z,423.00
2023-03-16T03:11:33.474Z,421.00
2023-03-16T03:15:33.276Z,418.00
2023-03-16T03:19:33.482Z,417.00
2023-03-16T03:23:33.348Z,412.00
2023-03-16T03:27:33.639Z,416.00
2023-03-16T03:31:33.597Z,416.00
2023-03-16T03:35:33.789Z,412.00
2023-03-16T03:39:33.453Z,421.00
2023-03-16T03:43:33.429Z,420.00
2023-03-16T03:47:33.468Z,420.00
2023-03-16T03:51:34.030Z,421.00
2023-03-16T03:55:33.883Z,421.00
2023-03-16T03:59:33.809Z,420.00
2023-03-16T04:03:33.815Z,418.00
2023-03-16T04:07:33.437Z,424.00
2023-03-16T04:11:33.332Z,425.00
2023-03-16T04:15:33.866Z,420.00
2023-03-16T04:19:33.614Z,420.00
2023-03-16T04:23:33.384Z,422.00
2023-03-16T04:27:33.354Z,426.00
2023-03-16T04:31:33.347Z,426.00
2023-03-16T04:35:33.383Z,424.00
2023-03-16T04:39:33.503Z,421.00
2023-03-16T04:43:33.347Z,415.00
2023-03-16T04:47:33.329Z,413.00
2023-03-16T04:51:33.753Z,414.00
2023-03-16T04:55:33.627Z,418.00
2023-03-16T04:59:34.192Z,422.00
2023-03-16T05:03:33.567Z,421.00
2023-03-16T05:07:34.007Z,424.00
2023-03-16T05:11:34.231Z,426.00
2023-03-16T05:15:34.160Z,427.00
2023-03-16T05:19:34.086Z,432.00
2023-03-16T05:23:33.951Z,431.00
2023-03-16T05:27:33.929Z,433.00
2023-03-16T05:31:33.994Z,436.00
2023-03-16T05:35:33.959Z,432.00
2023-03-16T05:39:33.877Z,430.00
2023-03-16T05:43:34.217Z,431.00
2023-03-16T05:47:33.728Z,433.00
2023-03-16T05:51:33.738Z,433.00
2023-03-16T05:55:33.649Z,435.00
2023-03-16T05:59:33.707Z,435.00
2023-03-16T06:03:35.088Z,435.00
2023-03-16T06:07:33.545Z,428.00
2023-03-16T06:11:33.608Z,428.00
2023-03-16T06:15:33.546Z,428.00
2023-03-16T06:19:33.509Z,432.00
2023-03-16T06:23:33.476Z,430.00
2023-03-16T06:27:34.874Z,428.00
2023-03-16T06:31:33.778Z,428.00
2023-03-16T06:35:34.027Z,524.00
2023-03-16T06:39:33.301Z,619.00
2023-03-16T06:43:34.440Z,666.00
2023-03-16T06:47:34.394Z,734.00
2023-03-16T06:51:33.790Z,748.00
2023-03-16T06:55:33.892Z,773.00
2023-03-16T06:59:34.234Z,784.00
2023-03-16T07:03:34.173Z,810.00
2023-03-16T07:07:37.068Z,828.00
2023-03-16T07:11:34.484Z,869.00
2023-03-16T07:15:33.981Z,885.00
2023-03-16T07:19:34.004Z,929.00
2023-03-16T07:23:33.897Z,957.00
2023-03-16T07:27:34.011Z,962.00
2023-03-16T07:43:24.102Z,685.00
2023-03-16T07:47:26.393Z,674.00
2023-03-16T07:51:23.556Z,805.00
2023-03-16T07:55:24.998Z,860.00
2023-03-16T07:59:23.716Z,885.00
2023-03-16T08:03:23.138Z,910.00
2023-03-16T08:07:23.555Z,905.00
2023-03-16T08:11:23.375Z,892.00
2023-03-16T08:15:23.503Z,912.00
2023-03-16T08:19:23.537Z,911.00
2023-03-16T08:23:24.517Z,930.00
2023-03-16T08:27:24.024Z,930.00
2023-03-16T08:31:24.452Z,938.00
2023-03-16T08:35:24.064Z,831.00
2023-03-16T08:39:23.801Z,857.00
2023-03-16T08:43:26.093Z,919.00
2023-03-16T08:47:24.033Z,934.00
2023-03-16T08:51:24.270Z,929.00
2023-03-16T08:55:24.497Z,914.00
2023-03-16T08:59:30.048Z,920.00
2023-03-16T09:03:27.248Z,921.00
2023-03-16T09:07:24.776Z,913.00
2023-03-16T09:11:24.408Z,934.00
2023-03-16T09:15:24.463Z,940.00
2023-03-16T09:19:24.236Z,937.00
2023-03-16T09:23:24.076Z,933.00
2023-03-16T09:27:24.089Z,748.00
2023-03-16T09:31:24.401Z,562.00
2023-03-16T09:35:24.049Z,511.00
2023-03-16T09:39:24.040Z,545.00
2023-03-16T09:43:24.347Z,548.00
2023-03-16T09:47:25.282Z,621.00
2023-03-16T09:51:24.407Z,687.00
2023-03-16T09:55:24.519Z,687.00
2023-03-16T09:59:24.204Z,713.00
2023-03-16T10:03:24.969Z,762.00
2023-03-16T10:07:25.325Z,766.00
2023-03-16T10:11:24.320Z,778.00
2023-03-16T10:15:25.239Z,787.00
2023-03-16T10:19:24.351Z,797.00
2023-03-16T10:23:24.219Z,803.00
2023-03-16T10:27:25.010Z,811.00
2023-03-16T10:31:25.047Z,858.00
2023-03-16T10:35:24.655Z,894.00
2023-03-16T10:39:25.308Z,823.00
2023-03-16T10:43:24.076Z,730.00
2023-03-16T10:47:24.306Z,688.00
2023-03-16T10:51:24.000Z,642.00
2023-03-16T10:55:24.354Z,594.00
2023-03-16T10:59:24.715Z,579.00
2023-03-16T11:03:24.690Z,552.00
2023-03-16T11:07:24.299Z,528.00
2023-03-16T14:30:00.693Z,438.00
2023-03-16T14:34:00.614Z,435.00
2023-03-16T14:38:00.696Z,437.00
2023-03-16T14:42:00.550Z,444.00
2023-03-16T14:46:00.727Z,449.00
2023-03-16T14:50:00.496Z,449.00
2023-03-16T14:54:00.484Z,451.00
2023-03-16T14:58:00.426Z,446.00
2023-03-16T15:02:00.748Z,445.00
2023-03-16T15:06:00.416Z,446.00
2023-03-16T15:10:00.276Z,438.00
2023-03-16T15:14:00.313Z,439.00
2023-03-16T15:18:00.282Z,438.00
2023-03-16T15:22:00.829Z,435.00
2023-03-16T15:26:00.256Z,434.00
2023-03-16T15:30:00.147Z,433.00
2023-03-16T15:34:00.210Z,439.00
2023-03-16T15:38:00.217Z,429.00
2023-03-16T15:42:00.312Z,426.00
2023-03-16T15:46:00.267Z,423.00
2023-03-16T15:50:00.239Z,423.00
2023-03-16T15:54:00.842Z,421.00
2023-03-16T15:58:00.207Z,427.00
2023-03-16T16:02:00.549Z,426.00
2023-03-16T16:06:00.558Z,422.00
2023-03-16T16:10:00.722Z,425.00
2023-03-16T16:14:00.581Z,420.00
2023-03-16T16:18:20.329Z,424.00
2023-03-16T16:22:01.833Z,423.00
2023-03-16T16:26:00.445Z,421.00
2023-03-16T16:30:00.208Z,422.00
2023-03-16T16:34:00.751Z,421.00
2023-03-16T16:38:00.135Z,419.00
2023-03-16T16:42:00.289Z,414.00
2023-03-16T16:46:00.449Z,414.00
2023-03-16T16:50:00.474Z,415.00
2023-03-16T16:54:00.944Z,415.00
2023-03-16T16:58:00.977Z,415.00
2023-03-16T17:02:01.442Z,414.00
2023-03-16T17:06:01.423Z,416.00
2023-03-16T17:10:01.213Z,414.00
2023-03-16T17:14:01.297Z,410.00
2023-03-16T17:18:01.270Z,411.00
2023-03-16T17:22:01.036Z,414.00
2023-03-16T17:26:01.574Z,418.00
2023-03-16T17:30:01.239Z,418.00
2023-03-16T17:34:00.961Z,412.00
2023-03-16T17:38:00.892Z,415.00
2023-03-16T17:42:00.860Z,418.00
2023-03-16T17:46:00.819Z,415.00
2023-03-16T17:50:01.578Z,412.00
2023-03-16T17:54:00.962Z,419.00
2023-03-16T17:58:00.724Z,418.00
2023-03-16T18:02:00.963Z,420.00
2023-03-16T18:06:00.587Z,418.00
2023-03-16T18:10:00.609Z,418.00
2023-03-16T18:14:00.632Z,421.00
2023-03-16T18:18:01.053Z,421.00
2023-03-16T18:22:01.168Z,421.00
2023-03-16T18:26:01.162Z,420.00
2023-03-16T18:30:01.678Z,418.00
2023-03-16T18:34:01.569Z,428.00
2023-03-16T18:38:01.679Z,431.00
2023-03-16T18:42:01.694Z,428.00
2023-03-16T18:46:02.115Z,425.00
2023-03-16T18:50:02.042Z,427.00
2023-03-16T18:54:02.013Z,425.00
2023-03-16T18:58:02.009Z,420.00
2023-03-16T19:02:02.644Z,420.00
2023-03-16T19:06:02.084Z,416.00
2023-03-16T19:10:02.214Z,420.00
2023-03-16T19:14:02.374Z,416.00
2023-03-16T19:18:02.402Z,415.00
2023-03-16T19:22:02.267Z,416.00
2023-03-16T19:26:02.324Z,419.00
2023-03-16T19:30:02.285Z,417.00
2023-03-16T19:34:02.182Z,416.00
2023-03-16T19:38:02.135Z,416.00
2023-03-16T19:42:02.361Z,416.00
2023-03-16T19:46:02.292Z,415.00
2023-03-16T19:50:02.325Z,414.00
2023-03-16T19:54:02.369Z,414.00
2023-03-16T19:58:02.104Z,414.00
2023-03-16T20:02:02.328Z,416.00
2023-03-16T20:06:02.408Z,419.00
2023-03-16T20:10:02.510Z,418.00
2023-03-16T20:14:02.578Z,417.00
2023-03-16T20:18:02.813Z,419.00
2023-03-16T20:22:02.923Z,417.00
2023-03-16T20:26:03.287Z,408.00
2023-03-16T20:30:02.687Z,410.00
2023-03-16T20:34:02.937Z,407.00
2023-03-16T20:38:03.099Z,411.00
2023-03-16T20:42:02.971Z,415.00
2023-03-16T20:46:02.915Z,416.00
2023-03-16T20:50:02.929Z,411.00
2023-03-16T20:54:03.083Z,411.00
2023-03-16T20:58:03.470Z,409.00
2023-03-16T21:02:03.133Z,407.00
2023-03-16T21:06:02.770Z,411.00
2023-03-16T21:10:02.992Z,412.00
2023-03-16T21:14:02.706Z,412.00
2023-03-16T21:18:02.917Z,410.00
2023-03-16T21:22:03.034Z,411.00
2023-03-16T21:26:02.828Z,408.00
2023-03-16T21:30:02.556Z,403.00
2023-03-16T21:34:02.555Z,407.00
2023-03-16T21:38:02.485Z,411.00
2023-03-16T21:42:02.495Z,418.00
2023-03-16T21:46:02.428Z,415.00
2023-03-16T21:50:02.415Z,413.00
2023-03-16T21:54:02.428Z,417.00
2023-03-16T21:58:02.262Z,413.00
2023-03-16T22:02:02.660Z,412.00
2023-03-16T22:06:02.619Z,409.00
2023-03-16T22:10:02.730Z,405.00
2023-03-16T22:14:02.713Z,401.00
2023-03-16T22:18:02.890Z,405.00
2023-03-16T22:22:02.965Z,408.00
2023-03-16T22:26:03.068Z,404.00
2023-03-16T22:30:03.285Z,408.00
2023-03-16T22:34:03.360Z,410.00
2023-03-16T22:38:03.541Z,412.00
2023-03-16T22:42:03.736Z,412.00
2023-03-16T22:46:04.008Z,412.00
2023-03-16T22:50:04.024Z,417.00
2023-03-16T22:54:04.186Z,411.00
2023-03-16T22:58:04.441Z,406.00
2023-03-16T23:02:04.564Z,403.00
2023-03-16T23:06:06.425Z,407.00
2023-03-16T23:10:04.796Z,408.00
2023-03-16T23:14:04.726Z,412.00
2023-03-16T23:18:04.737Z,408.00
2023-03-16T23:22:04.794Z,402.00
2023-03-16T23:26:04.577Z,400.00
2023-03-16T23:30:04.560Z,398.00
2023-03-16T23:34:04.791Z,399.00
2023-03-16T23:38:04.660Z,397.00
2023-03-16T23:42:04.433Z,401.00
2023-03-16T23:46:04.464Z,402.00
2023-03-16T23:50:04.755Z,404.00
2023-03-16T23:54:04.386Z,401.00
2023-03-16T23:58:04.719Z,401.00
